Home > Products > Valid Products > MTR

000
SAUS45 KLKN 130654
MTRP68
METAR KP68 130653Z AUTO 21006KT M06/M09 A3030 RMK AO1 SLP281
T10561089





000
SAUS45 KLKN 130555
MTRP68
METAR KP68 130553Z AUTO 26005KT M05/M09 A3030 RMK AO1 SLP282
T10501089 10017 21056 55002





000
SAUS45 KLKN 130555
MTRP68
METAR KP68 130553Z AUTO 26005KT M05/M09 A3030 RMK AO1 SLP282
T10501089 10017 21056 55002





000
SAUS45 KLKN 130454
MTRP68
METAR KP68 130453Z AUTO 20013KT M04/M08 A3029 RMK AO1 SLP292
T10391083





000
SAUS45 KLKN 130354
MTRP68
METAR KP68 130353Z AUTO 20008KT M05/M09 A3029 RMK AO1 SLP301
T10501089





000
SAUS45 KLKN 130354
MTRP68
METAR KP68 130353Z AUTO 20008KT M05/M09 A3029 RMK AO1 SLP301
T10501089





000
SAUS45 KLKN 130255
MTRP68
METAR KP68 130253Z AUTO 27003KT M05/M08 A3030 RMK AO1 SLP308
T10501078 53002





000
SAUS45 KLKN 130255
MTRP68
METAR KP68 130253Z AUTO 27003KT M05/M08 A3030 RMK AO1 SLP308
T10501078 53002





000
SAUS45 KLKN 130155
MTRP68
METAR KP68 130153Z AUTO 22005KT M03/M07 A3029 RMK AO1 SLP297
T10331072





000
SAUS45 KLKN 130054
MTRP68
METAR KP68 130053Z AUTO 21008KT M01/M06 A3029 RMK AO1 SLP293
T10061061





000
SAUS45 KLKN 130054
MTRP68
METAR KP68 130053Z AUTO 21008KT M01/M06 A3029 RMK AO1 SLP293
T10061061





000
SAUS45 KLKN 122354
MTRP68
METAR KP68 122353Z AUTO 20003KT 01/M04 A3030 RMK AO1 SLP288
T00111044 10050 21033 55005





000
SAUS45 KLKN 122354
MTRP68
METAR KP68 122353Z AUTO 20003KT 01/M04 A3030 RMK AO1 SLP288
T00111044 10050 21033 55005





000
SAUS45 KLKN 122254
MTRP68
METAR KP68 122253Z AUTO 23004KT 02/M04 A3030 RMK AO1 SLP276
T00221039





000
SAUS45 KLKN 122254
MTRP68
METAR KP68 122253Z AUTO 23004KT 02/M04 A3030 RMK AO1 SLP276
T00221039





000
SAUS45 KLKN 122155
MTRP68
METAR KP68 122153Z AUTO 00000KT 03/M04 A3030 RMK AO1 SLP278
T00281039





000
SAUS45 KLKN 122055
MTRP68
METAR KP68 122053Z AUTO 00000KT 02/M05 A3032 RMK AO1 SLP289
T00171050 58018





000
SAUS45 KLKN 121955
MTRP68
METAR KP68 121953Z AUTO 00000KT 01/M06 A3035 RMK AO1 SLP305
T00061061





000
SAUS45 KLKN 121854
MTRP68
METAR KP68 121853Z AUTO 00000KT M02/M07 A3038 RMK AO1 SLP308
T10171072





000
SAUS45 KLKN 121755
MTRP68
METAR KP68 121753Z AUTO 00000KT M03/M07 A3038 RMK AO1 SLP314
T10281072 11028 21133 55002





000
SAUS45 KLKN 121755
MTRP68
METAR KP68 121753Z AUTO 00000KT M03/M07 A3038 RMK AO1 SLP314
T10281072 11028 21133 55002





000
SAUS45 KLKN 121655
MTRP68
METAR KP68 121653Z AUTO 24003KT M09/M12 A3038 RMK AO1 SLP331
T10891117





000
SAUS45 KLKN 121555
MTRP68
METAR KP68 121553Z AUTO 23006KT M11/M13 A3039 RMK AO1 SLP335
T11111133





000
SAUS45 KLKN 121455
MTRP68
METAR KP68 121453Z AUTO 22005KT M12/M14 A3039 RMK AO1 SLP336
T11221144 53010





000
SAUS45 KLKN 121455
MTRP68
METAR KP68 121453Z AUTO 22005KT M12/M14 A3039 RMK AO1 SLP336
T11221144 53010





000
SAUS45 KLKN 121354
MTRP68
METAR KP68 121353Z AUTO 21003KT M11/M13 A3036 RMK AO1 SLP319
T11111133





000
SAUS45 KLKN 121254
MTRP68
METAR KP68 121253Z AUTO 22008KT M12/M14 A3035 RMK AO1 SLP313
T11221139





000
SAUS45 KLKN 121154
MTRP68
METAR KP68 121153Z AUTO 22003KT M11/M13 A3035 RMK AO1 SLP309
T11111133 11056 21111 55000





000
SAUS45 KLKN 121154
MTRP68
METAR KP68 121153Z AUTO 22003KT M11/M13 A3035 RMK AO1 SLP309
T11111133 11056 21111 55000





000
SAUS45 KLKN 121055
MTRP68
METAR KP68 121053Z AUTO 21010KT M08/M11 A3035 RMK AO1 SLP295
T10781106





000
SAUS45 KLKN 121055
MTRP68
METAR KP68 121053Z AUTO 21010KT M08/M11 A3035 RMK AO1 SLP295
T10781106





000
SAUS45 KLKN 120954
MTRP68
METAR KP68 120953Z AUTO 21009KT M09/M12 A3036 RMK AO1 SLP295
T10891117





000
SAUS45 KLKN 120855
MTRP68
METAR KP68 120853Z AUTO 00000KT M09/M12 A3036 RMK AO1 SLP303
T10941117 56006





000
SAUS45 KLKN 120855
MTRP68
METAR KP68 120853Z AUTO 00000KT M09/M12 A3036 RMK AO1 SLP303
T10941117 56006





000
SAUS45 KLKN 120755
MTRP68
METAR KP68 120753Z AUTO 00000KT M09/M13 A3036 RMK AO1 SLP306
T10941128 400501144





000
SAUS45 KLKN 120654
MTRP68
METAR KP68 120653Z AUTO 21008KT M06/M10 A3036 RMK AO1 SLP301
T10561100





000
SAUS45 KLKN 120654
MTRP68
METAR KP68 120653Z AUTO 21008KT M06/M10 A3036 RMK AO1 SLP301
T10561100





000
SAUS45 KLKN 120555
MTRP68
METAR KP68 120553Z AUTO 21008KT M07/M10 A3038 RMK AO1 SLP317
T10671100 10011 21078 53007





000
SAUS45 KLKN 120555
MTRP68
METAR KP68 120553Z AUTO 21008KT M07/M10 A3038 RMK AO1 SLP317
T10671100 10011 21078 53007





000
SAUS45 KLKN 120455
MTRP68
METAR KP68 120453Z AUTO 21007KT M07/M10 A3037 RMK AO1 SLP322
T10671100





000
SAUS45 KLKN 120455
MTRP68
METAR KP68 120453Z AUTO 21007KT M07/M10 A3037 RMK AO1 SLP322
T10671100





000
SAUS45 KLKN 120354
MTRP68
METAR KP68 120353Z AUTO 25004KT M05/M07 A3036 RMK AO1 SLP322
T10501072





000
SAUS45 KLKN 120254
MTRP68
METAR KP68 120253Z AUTO 10004KT M04/M07 A3035 RMK AO1 SLP326
T10391072 51002





000
SAUS45 KLKN 120154
MTRP68
METAR KP68 120153Z AUTO 20005KT M02/M06 A3035 RMK AO1 SLP316
T10221061





000
SAUS45 KLKN 120154
MTRP68
METAR KP68 120153Z AUTO 20005KT M02/M06 A3035 RMK AO1 SLP316
T10221061





000
SAUS45 KLKN 120054
MTRP68
METAR KP68 120053Z AUTO 23006KT M01/M05 A3035 RMK AO1 SLP310
T10061050





000
SAUS45 KLKN 120054
MTRP68
METAR KP68 120053Z AUTO 23006KT M01/M05 A3035 RMK AO1 SLP310
T10061050





000
SAUS45 KLKN 112354
MTRP68
METAR KP68 112353Z AUTO 20004KT 01/M04 A3035 RMK AO1 SLP306
T00111044 10050 21033 55003





000
SAUS45 KLKN 112254
MTRP68
METAR KP68 112253Z AUTO 00000KT 02/M05 A3034 RMK AO1 SLP297
T00221050





000
SAUS45 KLKN 112154
MTRP68
METAR KP68 112153Z AUTO 00000KT 04/M06 A3033 RMK AO1 SLP291
T00441056





000
SAUS45 KLKN 112055
MTRP68
METAR KP68 112053Z AUTO 00000KT 02/M06 A3036 RMK AO1 SLP299
T00171056 58013





000
SAUS45 KLKN 111955
MTRP68
METAR KP68 111953Z AUTO 03003KT 02/M07 A3039 RMK AO1 SLP320
T00171072





000
SAUS45 KLKN 111855
MTRP68
METAR KP68 111853Z AUTO 00000KT M02/M07 A3041 RMK AO1 SLP325
T10171067





000
SAUS45 KLKN 111754
MTRP68
METAR KP68 111753Z AUTO 25003KT M04/M08 A3041 RMK AO1 SLP335
T10391078 11039 21144 50001





000
SAUS45 KLKN 111754
MTRP68
METAR KP68 111753Z AUTO 25003KT M04/M08 A3041 RMK AO1 SLP335
T10391078 11039 21144 50001





000
SAUS45 KLKN 111654
MTRP68
METAR KP68 111653Z AUTO 25005KT M07/M11 A3042 RMK AO1 SLP344
T10671106





000
SAUS45 KLKN 111554
MTRP68
METAR KP68 111553Z AUTO 23007KT M10/M12 A3041 RMK AO1 SLP347
T11001122





000
SAUS45 KLKN 111554
MTRP68
METAR KP68 111553Z AUTO 23007KT M10/M12 A3041 RMK AO1 SLP347
T11001122





000
SAUS45 KLKN 111455
MTRP68
METAR KP68 111453Z AUTO 22005KT M13/M16 A3041 RMK AO1 SLP347
T11331156 50003





000
SAUS45 KLKN 111455
MTRP68
METAR KP68 111453Z AUTO 22005KT M13/M16 A3041 RMK AO1 SLP347
T11331156 50003





000
SAUS45 KLKN 111355
MTRP68
METAR KP68 111353Z AUTO 23005KT M12/M14 A3041 RMK AO1 SLP348
T11171139





000
SAUS45 KLKN 111255
MTRP68
METAR KP68 111253Z AUTO 20006KT M11/M13 A3040 RMK AO1 SLP332
T11111133





000
SAUS45 KLKN 111255
MTRP68
METAR KP68 111253Z AUTO 20006KT M11/M13 A3040 RMK AO1 SLP332
T11111133





000
SAUS45 KLKN 111155
MTRP68
METAR KP68 111153Z AUTO 24007KT M12/M14 A3039 RMK AO1 SLP322 7////
T11171139 11072 21128 55001





000
SAUS45 KLKN 111155
MTRP68
METAR KP68 111153Z AUTO 24007KT M12/M14 A3039 RMK AO1 SLP322 7////
T11171139 11072 21128 55001





000
SAUS45 KLKN 111055
MTRP68
METAR KP68 111053Z AUTO 22005KT M11/M13 A3039 RMK AO1 SLP321
T11061133





000
SAUS45 KLKN 111055
MTRP68
METAR KP68 111053Z AUTO 22005KT M11/M13 A3039 RMK AO1 SLP321
T11061133





000
SAUS45 KLKN 110955
MTRP68
METAR KP68 110953Z AUTO 22006KT M11/M14 A3039 RMK AO1 SLP321
T11111139





000
SAUS45 KLKN 110855
MTRP68
METAR KP68 110853Z AUTO 22008KT M08/M11 A3040 RMK AO1 SLP320
T10781111 56008





000
SAUS45 KLKN 110855
MTRP68
METAR KP68 110853Z AUTO 22008KT M08/M11 A3040 RMK AO1 SLP320
T10781111 56008





000
SAUS45 KLKN 110755
MTRP68
METAR KP68 110753Z AUTO 27005KT M12/M15 A3040 RMK AO1 SLP333
T11221150 400281167





000
SAUS45 KLKN 110755
MTRP68
METAR KP68 110753Z AUTO 27005KT M12/M15 A3040 RMK AO1 SLP333
T11221150 400281167





000
SAUS45 KLKN 110655
MTRP68
METAR KP68 110653Z AUTO 22008KT M08/M12 A3040 RMK AO1 SLP333
T10781117





000
SAUS45 KLKN 110555
MTRP68
METAR KP68 110553Z AUTO 18005KT M10/M12 A3043 RMK AO1 SLP351
T11001122 10017 21106 53002





000
SAUS45 KLKN 110555
MTRP68
METAR KP68 110553Z AUTO 18005KT M10/M12 A3043 RMK AO1 SLP351
T11001122 10017 21106 53002





000
SAUS45 KLKN 110455
MTRP68
METAR KP68 110453Z AUTO 23004KT M08/M12 A3042 RMK AO1 SLP357
T10831117





000
SAUS45 KLKN 110355
MTRP68
METAR KP68 110353Z AUTO 21004KT M08/M11 A3041 RMK AO1 SLP360
T10781106





000
SAUS45 KLKN 110255
MTRP68
METAR KP68 110253Z AUTO 22007KT M05/M09 A3042 RMK AO1 SLP355
T10501094 50004





000
SAUS45 KLKN 110255
MTRP68
METAR KP68 110253Z AUTO 22007KT M05/M09 A3042 RMK AO1 SLP355
T10501094 50004





000
SAUS45 KLKN 110156 COR
MTRP68
METAR KP68 110153Z AUTO 21006KT M06/M10 A3043 RMK AO1 SLP360
T10611100





000
SAUS45 KLKN 110156 COR
MTRP68
METAR KP68 110153Z AUTO 21006KT M06/M10 A3043 RMK AO1 SLP360
T10611100





000
SAUS45 KLKN 110155 COR
MTRP68
METAR KP68 110153Z AUTO 21006KT M06/M10 A3043 RMK AO1 SLP360
T10611100





000
SAUS45 KLKN 110155 COR
MTRP68
METAR KP68 110153Z AUTO 21006KT M06/M10 A3043 RMK AO1 SLP360
T10611100





000
SAUS45 KLKN 110154
MTRP68
METAR KP68 110153Z AUTO 21006KT M06/M10 A3043 RMK AO1 SLP360
T10611100





000
SAUS45 KLKN 110154
MTRP68
METAR KP68 110153Z AUTO 21006KT M06/M10 A3043 RMK AO1 SLP360
T10611100





000
SAUS45 KLKN 110054
MTRP68
METAR KP68 110053Z AUTO 25003KT M02/M07 A3042 RMK AO1 SLP347
T10221067





000
SAUS45 KLKN 110054
MTRP68
METAR KP68 110053Z AUTO 25003KT M02/M07 A3042 RMK AO1 SLP347
T10221067





000
SAUS45 KLKN 102355
MTRP68
METAR KP68 102353Z AUTO 20003KT 01/M06 A3040 RMK AO1 SLP332 6////
T00111061 10028 21072 $





000
SAUS45 KLKN 102355
MTRP68
METAR KP68 102353Z AUTO 20003KT 01/M06 A3040 RMK AO1 SLP332 6////
T00111061 10028 21072 $





000
SAUS45 KLKN 102255
MTRP68
METAR KP68 102253Z AUTO 00000KT 01/M06 A3039 RMK AO1 SLP335
T00061056 $





000
SAUS45 KLKN 102255
MTRP68
METAR KP68 102253Z AUTO 00000KT 01/M06 A3039 RMK AO1 SLP335
T00061056 $





000
SAUS45 KLKN 102154
MTRP68
METAR KP68 102153Z AUTO 22005KT 00/M06 A3041 RMK AO1 SLP333
T00001056





000
SAUS45 KLKN 102154
MTRP68
METAR KP68 102153Z AUTO 22005KT 00/M06 A3041 RMK AO1 SLP333
T00001056





000
SAUS45 KLKN 102055
MTRP68
METAR KP68 102053Z AUTO 02005KT 01/M06 A3042 RMK AO1 SLP337
T00061061 58013





000
SAUS45 KLKN 101954
MTRP68
METAR KP68 101953Z AUTO 00000KT M01/M07 A3044 RMK AO1 SLP345
T10111072





000
SAUS45 KLKN 101854
MTRP68
METAR KP68 101853Z AUTO 00000KT M01/M08 A3046 RMK AO1 SLP347
T10111078





000
SAUS45 KLKN 101854
MTRP68
METAR KP68 101853Z AUTO 00000KT M01/M08 A3046 RMK AO1 SLP347
T10111078





000
SAUS45 KLKN 101755
MTRP68
METAR KP68 101753Z AUTO 21004KT M07/M10 A3047 RMK AO1 SLP378
T10721100 11072 21161 53009





000
SAUS45 KLKN 101755
MTRP68
METAR KP68 101753Z AUTO 21004KT M07/M10 A3047 RMK AO1 SLP378
T10721100 11072 21161 53009





000
SAUS45 KLKN 101654
MTRP68
METAR KP68 101653Z AUTO 21005KT M12/M14 A3047 RMK AO1 SLP383
T11171139





000
SAUS45 KLKN 101654
MTRP68
METAR KP68 101653Z AUTO 21005KT M12/M14 A3047 RMK AO1 SLP383
T11171139





000
SAUS45 KLKN 101555
MTRP68
METAR KP68 101553Z AUTO 23006KT M13/M15 A3042 RMK AO1 SLP366
T11331150





000
SAUS45 KLKN 101455
MTRP68
METAR KP68 101453Z AUTO 22006KT M14/M17 A3043 RMK AO1 SLP376
T11441167 51001





000
SAUS45 KLKN 101455
MTRP68
METAR KP68 101453Z AUTO 22006KT M14/M17 A3043 RMK AO1 SLP376
T11441167 51001





000
SAUS45 KLKN 101354
MTRP68
METAR KP68 101353Z AUTO 23008KT M14/M17 A3043 RMK AO1 SLP375
T11441167





000
SAUS45 KLKN 101354
MTRP68
METAR KP68 101353Z AUTO 23008KT M14/M17 A3043 RMK AO1 SLP375
T11441167





000
SAUS45 KLKN 101254
MTRP68
METAR KP68 101253Z AUTO 00000KT M15/M18 A3044 RMK AO1 SLP364
T11501178





000
SAUS45 KLKN 101155
MTRP68
METAR KP68 101153Z AUTO 23007KT M16/M19 A3043 RMK AO1 SLP359
T11611189 11100 21167 53003





000
SAUS45 KLKN 101155
MTRP68
METAR KP68 101153Z AUTO 23007KT M16/M19 A3043 RMK AO1 SLP359
T11611189 11100 21167 53003





000
SAUS45 KLKN 101055
MTRP68
METAR KP68 101053Z AUTO 23009KT M13/M15 A3042 RMK AO1 SLP339
T11281150





000
SAUS45 KLKN 100954
MTRP68
METAR KP68 100953Z AUTO 21011KT M12/M14 A3043 RMK AO1 SLP342
T11221144





000
SAUS45 KLKN 100854
MTRP68
METAR KP68 100853Z AUTO 22006KT M13/M16 A3042 RMK AO1 SLP348
T11331156 58003





000
SAUS45 KLKN 100854
MTRP68
METAR KP68 100853Z AUTO 22006KT M13/M16 A3042 RMK AO1 SLP348
T11331156 58003





000
SAUS45 KLKN 100754
MTRP68
METAR KP68 100753Z AUTO 22007KT M12/M14 A3044 RMK AO1 SLP354
T11221144 410111178





    US Dept of Commerce
    National Oceanic and Atmospheric Administration
    National Weather Service
    1325 East West Highway
    Silver Spring, MD 20910
    Page Author: NWS Internet Services Team
Disclaimer
Information Quality
Credits
Glossary
Privacy Policy
Freedom of Information Act (FOIA)
About Us
Career Opportunities